Time;durP1;ratioP1;P1;durP2;ratioP2;P2;SDS_P1;SDS_P2;PMS_P1;PMS_P2;Temp;Humidity;BMP_temperature;BMP_pressure;BME280_temperature;BME280_humidity;BME280_pressure;Samples;Min_cycle;Max_cycle;Signal;HPM_P1;HPM_P2
2022/06/12 00:00:16;;;;;;;5.95;1.90;;;25.40;44.50;;;;;;4975608;28;20109;-76
2022/06/12 00:02:43;;;;;;;6.13;1.83;;;25.30;44.70;;;;;;4975448;28;20115;-75
2022/06/12 00:05:10;;;;;;;3.92;1.75;;;25.30;44.80;;;;;;4976042;28;20039;-75
2022/06/12 00:07:36;;;;;;;5.97;2.22;;;25.30;44.90;;;;;;4975808;28;20019;-74
2022/06/12 00:10:05;;;;;;;6.43;1.55;;;25.20;44.60;;;;;;4975434;28;20373;-73
2022/06/12 00:12:31;;;;;;;3.95;1.67;;;25.20;44.80;;;;;;4975532;28;20078;-75
2022/06/12 00:14:57;;;;;;;5.25;2.05;;;25.20;45.10;;;;;;4975466;28;20442;-75
2022/06/12 00:17:23;;;;;;;6.40;1.90;;;25.20;45.10;;;;;;4975334;28;20480;-76
2022/06/12 00:19:49;;;;;;;4.28;1.80;;;25.20;45.10;;;;;;4974971;28;20027;-71
2022/06/12 00:22:16;;;;;;;4.97;2.03;;;25.20;45.10;;;;;;4975442;28;20043;-75
2022/06/12 00:24:42;;;;;;;4.32;1.80;;;25.10;45.20;;;;;;4975239;28;20115;-76
2022/06/12 00:27:08;;;;;;;3.30;1.80;;;25.10;45.30;;;;;;4975114;28;20117;-74
2022/06/12 00:29:36;;;;;;;4.53;1.85;;;25.00;45.20;;;;;;4974148;28;20037;-74
2022/06/12 00:32:01;;;;;;;5.80;1.90;;;24.90;45.80;;;;;;4974918;28;20045;-75
2022/06/12 00:34:31;;;;;;;5.88;1.85;;;24.90;45.40;;;;;;4975076;28;20038;-74
2022/06/12 00:36:58;;;;;;;3.72;1.42;;;25.00;46.10;;;;;;4974904;28;20015;-74
2022/06/12 00:39:25;;;;;;;5.70;1.75;;;24.90;45.80;;;;;;4974606;28;20049;-75
2022/06/12 00:41:54;;;;;;;4.28;1.98;;;24.80;45.70;;;;;;4974649;28;20027;-74
2022/06/12 00:44:24;;;;;;;7.20;1.70;;;24.80;45.80;;;;;;4974588;28;20183;-75
2022/06/12 00:46:52;;;;;;;5.00;1.80;;;24.90;45.70;;;;;;4974596;28;20105;-74
2022/06/12 00:49:50;;;;;;;4.45;1.88;;;24.80;45.50;;;;;;4974550;28;20031;-74
2022/06/12 00:52:41;;;;;;;7.40;1.98;;;24.80;44.40;;;;;;4973242;28;20039;-75
2022/06/12 00:55:14;;;;;;;4.25;1.85;;;24.70;45.70;;;;;;4973654;28;20085;-74
2022/06/12 00:57:40;;;;;;;6.50;2.03;;;24.70;46.10;;;;;;4974667;28;20380;-75
2022/06/12 01:00:13;;;;;;;5.53;1.88;;;24.60;45.90;;;;;;4974417;28;20432;-73
2022/06/12 01:02:40;;;;;;;4.88;1.80;;;24.60;45.80;;;;;;4974402;28;20042;-73
2022/06/12 01:07:58;;;;;;;5.68;1.73;;;24.60;46.50;;;;;;4974859;28;20491;-74
2022/06/12 01:10:28;;;;;;;5.20;2.00;;;24.50;46.30;;;;;;4974327;28;20022;-75
2022/06/12 01:13:09;;;;;;;4.95;2.17;;;24.50;46.20;;;;;;4974408;28;20070;-74
2022/06/12 01:15:40;;;;;;;3.88;2.08;;;24.40;46.20;;;;;;4974329;28;20422;-76
2022/06/12 01:18:10;;;;;;;3.55;1.80;;;24.50;46.70;;;;;;4974527;28;20023;-75
2022/06/12 01:20:47;;;;;;;4.60;2.00;;;24.40;46.60;;;;;;4974373;28;20524;-74
2022/06/12 01:23:42;;;;;;;3.38;2.00;;;24.40;46.80;;;;;;4974243;28;20035;-75
2022/06/12 01:27:02;;;;;;;3.85;2.15;;;24.40;46.90;;;;;;4968407;28;20117;-73
2022/06/12 01:29:33;;;;;;;4.40;1.73;;;24.40;45.60;;;;;;4971976;28;20452;-75
2022/06/12 01:32:05;;;;;;;4.93;2.03;;;24.40;47.10;;;;;;4973938;28;20043;-74
2022/06/12 01:34:45;;;;;;;4.40;1.80;;;24.40;46.90;;;;;;4974061;28;20027;-75
2022/06/12 01:37:35;;;;;;;6.18;1.83;;;24.40;45.20;;;;;;4974016;28;20027;-74
2022/06/12 01:40:52;;;;;;;7.03;1.90;;;24.40;46.90;;;;;;4973513;28;20022;-75
2022/06/12 01:43:39;;;;;;;5.20;2.03;;;24.40;45.50;;;;;;4971596;28;20074;-74
2022/06/12 01:46:12;;;;;;;2.85;1.92;;;24.40;45.40;;;;;;4971784;28;20400;-75
2022/06/12 01:48:56;;;;;;;4.45;1.88;;;24.40;47.10;;;;;;4973033;28;20042;-75
2022/06/12 01:51:33;;;;;;;5.78;2.05;;;24.40;47.20;;;;;;4973993;28;20029;-73
2022/06/12 01:54:09;;;;;;;5.10;2.00;;;24.30;46.80;;;;;;4973839;28;20034;-74
2022/06/12 01:56:50;;;;;;;3.85;1.98;;;24.30;47.10;;;;;;4973755;28;20360;-75
2022/06/12 01:59:38;;;;;;;2.42;1.85;;;24.20;45.80;;;;;;4973552;28;20055;-74
2022/06/12 02:02:26;;;;;;;4.30;2.53;;;24.20;45.60;;;;;;4973556;28;20035;-74
2022/06/12 02:04:58;;;;;;;3.65;1.83;;;24.20;47.60;;;;;;4973648;28;20042;-75
2022/06/12 02:07:35;;;;;;;3.92;2.33;;;24.20;47.30;;;;;;4973720;28;20053;-74
2022/06/12 02:10:15;;;;;;;3.65;1.90;;;24.20;47.30;;;;;;4973528;28;20114;-75
2022/06/12 02:15:41;;;;;;;4.20;1.80;;;24.10;47.50;;;;;;4973787;28;20381;-74
2022/06/12 02:18:10;;;;;;;3.42;1.90;;;24.10;47.50;;;;;;4973601;28;20113;-75
2022/06/12 02:20:40;;;;;;;4.45;1.80;;;24.10;46.20;;;;;;4973469;28;20404;-74
2022/06/12 02:23:11;;;;;;;3.92;2.10;;;24.10;47.70;;;;;;4973640;28;20023;-75
2022/06/12 02:25:40;;;;;;;4.40;2.10;;;24.10;47.50;;;;;;4973449;28;20030;-75
2022/06/12 02:28:17;;;;;;;4.55;1.98;;;24.10;47.60;;;;;;4973376;28;20110;-74
2022/06/12 02:30:48;;;;;;;3.78;1.77;;;24.20;47.60;;;;;;4973232;28;20058;-75
2022/06/12 02:33:23;;;;;;;5.65;2.17;;;24.10;47.50;;;;;;4973446;28;20027;-75
2022/06/12 02:35:54;;;;;;;4.20;1.70;;;24.10;47.50;;;;;;4973176;28;20034;-75
2022/06/12 02:38:22;;;;;;;4.72;1.80;;;24.00;47.40;;;;;;4973161;28;20070;-75
2022/06/12 02:40:53;;;;;;;6.32;2.10;;;24.00;47.40;;;;;;4973015;28;20030;-75
2022/06/12 02:43:27;;;;;;;5.43;1.92;;;24.00;47.70;;;;;;4973022;28;20038;-74
2022/06/12 02:46:05;;;;;;;4.28;1.90;;;24.00;47.60;;;;;;4973177;28;20081;-73
2022/06/12 02:48:32;;;;;;;6.22;1.80;;;23.90;47.50;;;;;;4971892;28;20122;-74
2022/06/12 02:51:13;;;;;;;4.05;1.95;;;23.90;47.90;;;;;;4973017;28;20059;-73
2022/06/12 02:54:00;;;;;;;3.72;2.00;;;23.90;47.70;;;;;;4976104;28;20042;-74
2022/06/12 02:56:42;;;;;;;4.43;2.53;;;23.90;46.40;;;;;;4976636;28;20054;-74
2022/06/12 02:59:30;;;;;;;4.80;1.88;;;23.90;46.50;;;;;;4976629;28;20031;-72
2022/06/12 03:02:07;;;;;;;3.50;1.70;;;23.80;46.80;;;;;;4976314;28;20023;-73
2022/06/12 03:04:56;;;;;;;3.78;1.90;;;23.80;46.90;;;;;;4976554;28;20374;-75
2022/06/12 03:07:23;;;;;;;5.80;2.30;;;23.80;47.20;;;;;;4976571;28;20117;-74
2022/06/12 03:09:48;;;;;;;3.08;1.80;;;23.80;48.30;;;;;;4976636;28;20039;-73
2022/06/12 03:12:14;;;;;;;5.63;2.38;;;23.80;48.10;;;;;;4976554;28;20130;-74
2022/06/12 03:14:41;;;;;;;4.43;2.05;;;23.80;48.20;;;;;;4976475;28;20022;-75
2022/06/12 03:17:07;;;;;;;3.95;1.98;;;23.70;48.20;;;;;;4976383;28;20101;-75
2022/06/12 03:19:44;;;;;;;6.30;2.17;;;23.70;48.40;;;;;;4976261;28;20111;-73
2022/06/12 03:22:19;;;;;;;4.45;2.00;;;23.70;48.60;;;;;;4976117;28;20499;-75
2022/06/12 03:24:53;;;;;;;6.63;2.10;;;23.70;47.30;;;;;;4976359;28;20035;-75
2022/06/12 03:27:42;;;;;;;4.43;2.17;;;23.70;47.50;;;;;;4976266;28;20101;-75
2022/06/12 03:30:31;;;;;;;4.68;2.33;;;23.70;47.30;;;;;;4976369;28;20070;-75
2022/06/12 03:33:03;;;;;;;3.45;1.83;;;23.60;47.20;;;;;;4976229;28;20066;-75
2022/06/12 03:35:42;;;;;;;5.15;2.13;;;23.50;48.50;;;;;;4976124;28;20031;-75
2022/06/12 03:38:40;;;;;;;4.53;2.00;;;23.50;47.60;;;;;;4975945;28;20039;-74
2022/06/12 03:41:12;;;;;;;4.72;1.98;;;23.50;47.70;;;;;;4975617;28;20042;-73
2022/06/12 03:43:43;;;;;;;3.95;2.20;;;23.50;48.80;;;;;;4976155;28;20070;-75
2022/06/12 03:46:47;;;;;;;4.50;2.00;;;23.60;47.70;;;;;;4975960;28;20023;-74
2022/06/12 03:49:22;;;;;;;;;;;23.50;47.80;;;;;;4976270;28;20038;-74
2022/06/12 03:51:51;;;;;;;3.90;2.13;;;23.60;47.70;;;;;;4975879;28;20220;-75
2022/06/12 03:54:17;;;;;;;6.28;1.90;;;23.60;47.50;;;;;;4975871;28;20093;-75
2022/06/12 03:59:54;;;;;;;4.32;1.65;;;23.70;48.90;;;;;;4975928;28;20046;-75
2022/06/12 04:02:25;;;;;;;4.95;2.03;;;23.60;47.30;;;;;;4975550;28;20101;-76
2022/06/12 04:04:52;;;;;;;3.88;2.10;;;23.60;49.10;;;;;;4975409;28;20092;-73
2022/06/12 04:07:20;;;;;;;3.85;2.17;;;23.60;48.80;;;;;;4974374;28;20435;-75
2022/06/12 04:09:51;;;;;;;6.82;2.30;;;23.60;48.90;;;;;;4975566;28;20035;-75
2022/06/12 04:12:28;;;;;;;5.95;2.20;;;23.60;48.90;;;;;;4975806;28;20019;-73
2022/06/12 04:15:12;;;;;;;3.30;2.00;;;23.60;48.00;;;;;;4975546;28;20026;-74
2022/06/12 04:17:39;;;;;;;4.38;2.22;;;23.50;47.90;;;;;;4975625;28;20023;-74
2022/06/12 04:20:06;;;;;;;4.18;2.08;;;23.60;48.90;;;;;;4973958;28;20023;-74
2022/06/12 04:22:41;;;;;;;5.60;2.47;;;23.60;48.80;;;;;;4975382;28;20054;-74
2022/06/12 04:25:44;;;;;;;5.10;2.67;;;23.60;48.90;;;;;;4975362;28;20027;-74
2022/06/12 04:28:33;;;;;;;6.28;2.33;;;23.70;48.00;;;;;;4973430;28;20039;-75
2022/06/12 04:31:01;;;;;;;6.30;2.40;;;23.60;47.70;;;;;;4975262;28;20051;-75
2022/06/12 04:33:48;;;;;;;5.30;2.17;;;23.60;49.30;;;;;;4975183;28;20027;-74
2022/06/12 04:36:14;;;;;;;4.60;1.90;;;23.60;47.70;;;;;;4975103;28;20027;-75
2022/06/12 04:38:41;;;;;;;5.50;2.10;;;23.70;48.80;;;;;;4975078;28;20027;-74
2022/06/12 04:41:07;;;;;;;6.28;2.20;;;23.60;48.70;;;;;;4974840;28;20023;-75
2022/06/12 04:43:33;;;;;;;6.38;2.17;;;23.60;49.10;;;;;;4973725;28;20119;-73
2022/06/12 04:45:59;;;;;;;4.28;2.22;;;23.60;48.90;;;;;;4974851;28;20022;-75
2022/06/12 04:48:34;;;;;;;4.65;2.00;;;23.70;49.00;;;;;;4974959;28;20027;-75
2022/06/12 04:51:00;;;;;;;5.70;2.80;;;23.70;49.00;;;;;;4974697;28;20481;-74
2022/06/12 04:53:26;;;;;;;4.93;2.25;;;23.70;48.80;;;;;;4974634;28;20031;-74
2022/06/12 04:55:52;;;;;;;4.97;2.20;;;23.80;48.90;;;;;;4974842;28;20023;-75
2022/06/12 04:58:17;;;;;;;4.97;2.13;;;23.80;48.90;;;;;;4974534;28;20435;-75
2022/06/12 05:00:44;;;;;;;3.95;2.30;;;23.70;48.80;;;;;;4974469;28;20027;-73
2022/06/12 05:03:12;;;;;;;3.63;1.90;;;23.70;49.10;;;;;;4974579;28;20118;-75
2022/06/12 05:05:39;;;;;;;5.53;2.20;;;23.80;48.80;;;;;;4974585;28;20144;-75
2022/06/12 05:08:04;;;;;;;5.20;2.25;;;23.80;48.90;;;;;;4973222;28;20039;-74
2022/06/12 05:10:30;;;;;;;5.28;2.20;;;23.90;48.90;;;;;;4974586;28;20023;-75
2022/06/12 05:12:56;;;;;;;4.95;2.63;;;24.00;48.50;;;;;;4974474;28;20027;-75
2022/06/12 05:15:22;;;;;;;4.80;2.65;;;24.10;48.40;;;;;;4974037;28;20500;-76
2022/06/12 05:17:49;;;;;;;6.90;2.20;;;24.30;48.30;;;;;;4974419;28;20019;-75
2022/06/12 05:20:19;;;;;;;5.50;2.58;;;24.40;48.20;;;;;;4974421;28;20062;-76
2022/06/12 05:22:46;;;;;;;6.15;2.42;;;24.70;47.80;;;;;;4974343;28;20031;-73
2022/06/12 05:25:13;;;;;;;6.15;2.33;;;24.90;47.20;;;;;;4974745;28;20027;-75
2022/06/12 05:27:40;;;;;;;3.83;2.20;;;25.20;46.60;;;;;;4974231;28;20015;-76
2022/06/12 05:30:06;;;;;;;6.25;2.38;;;25.60;46.40;;;;;;4973125;28;20061;-78
2022/06/12 05:32:33;;;;;;;9.55;2.97;;;25.90;45.40;;;;;;4974674;28;20046;-77
2022/06/12 05:34:59;;;;;;;6.78;2.70;;;26.10;45.50;;;;;;4974389;28;20027;-76
2022/06/12 05:37:25;;;;;;;4.80;2.42;;;26.30;45.60;;;;;;4974308;28;20029;-75
2022/06/12 05:39:51;;;;;;;6.47;2.97;;;26.50;44.90;;;;;;4972891;28;20436;-76
2022/06/12 05:42:17;;;;;;;7.43;3.00;;;26.70;44.80;;;;;;4972675;28;20033;-76
2022/06/12 05:44:43;;;;;;;7.35;2.58;;;26.90;44.20;;;;;;4973929;28;20027;-75
2022/06/12 05:47:10;;;;;;;5.68;2.47;;;27.10;43.90;;;;;;4974110;28;20023;-76
2022/06/12 05:49:36;;;;;;;4.60;2.30;;;27.20;43.60;;;;;;4973677;28;20455;-75
2022/06/12 05:52:02;;;;;;;4.15;2.20;;;27.40;43.60;;;;;;4973792;28;20098;-75
2022/06/12 05:54:28;;;;;;;6.05;2.15;;;27.50;43.60;;;;;;4973443;28;20453;-76
2022/06/12 05:56:54;;;;;;;3.92;1.92;;;27.70;43.30;;;;;;4972552;28;20113;-76
2022/06/12 05:59:20;;;;;;;7.43;2.30;;;27.80;43.30;;;;;;4973637;28;20043;-75
2022/06/12 06:01:46;;;;;;;4.65;2.20;;;28.00;42.90;;;;;;4973952;28;20037;-76
2022/06/12 06:04:11;;;;;;;5.18;2.22;;;28.10;42.80;;;;;;4974181;28;20035;-76
2022/06/12 06:06:51;;;;;;;5.30;2.45;;;28.10;42.70;;;;;;4972460;28;20027;-74
2022/06/12 06:09:17;;;;;;;5.25;2.25;;;28.10;42.60;;;;;;4973549;28;20023;-75
2022/06/12 06:11:43;;;;;;;10.65;3.10;;;28.20;42.70;;;;;;4973627;28;20081;-75
2022/06/12 06:14:09;;;;;;;6.18;2.67;;;28.30;42.60;;;;;;4974017;28;20439;-76
2022/06/12 06:16:36;;;;;;;3.88;2.30;;;28.40;42.40;;;;;;4973627;28;20031;-77
2022/06/12 06:19:03;;;;;;;4.57;2.40;;;28.30;42.30;;;;;;4973796;28;20023;-75
2022/06/12 06:21:29;;;;;;;8.02;2.00;;;28.30;42.30;;;;;;4973555;28;20059;-73
2022/06/12 06:23:55;;;;;;;6.90;2.20;;;28.30;42.50;;;;;;4973477;28;20027;-77
2022/06/12 06:26:21;;;;;;;6.05;2.33;;;28.40;42.60;;;;;;4973812;28;20374;-75
2022/06/12 06:28:52;;;;;;;4.50;2.30;;;28.60;42.40;;;;;;4975907;28;20101;-77
2022/06/12 06:31:19;;;;;;;4.05;2.35;;;28.80;41.20;;;;;;4977335;28;20118;-75
2022/06/12 06:33:45;;;;;;;7.07;4.00;;;28.80;42.00;;;;;;4977208;28;20030;-74
2022/06/12 06:36:18;;;;;;;7.22;3.72;;;28.90;41.90;;;;;;4977150;28;20435;-75
2022/06/12 06:38:45;;;;;;;5.35;2.40;;;28.90;41.80;;;;;;4977854;28;20089;-74
2022/06/12 06:41:12;;;;;;;5.78;2.42;;;28.90;41.80;;;;;;4977380;28;20053;-75
2022/06/12 06:46:23;;;;;;;7.38;2.33;;;28.80;41.70;;;;;;4977172;28;20034;-75
2022/06/12 06:48:49;;;;;;;6.43;2.35;;;28.90;42.00;;;;;;4977064;28;20035;-76
2022/06/12 06:51:15;;;;;;;5.57;1.95;;;28.90;42.10;;;;;;4975894;28;20015;-71
2022/06/12 06:53:41;;;;;;;4.75;2.30;;;29.00;42.00;;;;;;4976946;28;20034;-75
2022/06/12 06:56:07;;;;;;;4.50;2.28;;;28.90;41.70;;;;;;4977004;28;20031;-76
2022/06/12 06:58:35;;;;;;;6.18;2.40;;;28.80;42.10;;;;;;4976880;28;20067;-76
2022/06/12 07:01:02;;;;;;;5.22;2.17;;;28.80;42.30;;;;;;4976022;28;20026;-74
2022/06/12 07:03:28;;;;;;;9.50;2.58;;;28.80;43.70;;;;;;4976507;28;20146;-76
2022/06/12 07:05:54;;;;;;;5.68;2.20;;;28.80;42.00;;;;;;4976755;28;20025;-75
2022/06/12 07:08:22;;;;;;;5.63;2.08;;;28.90;41.90;;;;;;4976977;28;20118;-75
2022/06/12 07:10:50;;;;;;;10.75;4.55;;;28.90;42.20;;;;;;4975777;28;20385;-74
2022/06/12 07:13:15;;;;;;;5.35;2.33;;;29.10;42.00;;;;;;4970481;28;20369;-75
2022/06/12 07:15:42;;;;;;;3.75;2.33;;;29.10;41.90;;;;;;4974183;28;20053;-79
2022/06/12 07:18:09;;;;;;;5.43;2.42;;;29.20;42.30;;;;;;4976506;28;20039;-75
2022/06/12 07:20:38;;;;;;;4.50;2.10;;;29.20;41.60;;;;;;4976118;28;20054;-75
2022/06/12 07:23:06;;;;;;;4.78;2.03;;;29.40;41.70;;;;;;4976303;28;20392;-79
2022/06/12 07:25:37;;;;;;;6.07;2.20;;;29.60;41.60;;;;;;4975063;28;20461;-75
2022/06/12 07:28:03;;;;;;;5.25;2.30;;;29.60;41.40;;;;;;4967971;28;20046;-75
2022/06/12 07:30:29;;;;;;;3.63;2.28;;;29.50;41.20;;;;;;4975933;28;20023;-74
2022/06/12 07:32:55;;;;;;;6.28;3.08;;;29.50;41.00;;;;;;4975976;28;20026;-75
2022/06/12 07:35:21;;;;;;;4.38;2.10;;;29.60;40.90;;;;;;4976031;28;20460;-75
2022/06/12 07:37:47;;;;;;;4.65;1.80;;;29.50;40.70;;;;;;4974489;28;20023;-75
2022/06/12 07:40:22;;;;;;;15.50;2.78;;;29.40;40.60;;;;;;4976266;28;20086;-74
2022/06/12 07:42:48;;;;;;;8.15;3.13;;;29.30;40.60;;;;;;4975924;28;20030;-80
2022/06/12 07:45:15;;;;;;;6.60;2.70;;;29.40;40.40;;;;;;4978030;28;20363;-78
2022/06/12 07:47:40;;;;;;;3.38;2.00;;;29.60;40.50;;;;;;4977723;28;20101;-77
2022/06/12 07:50:07;;;;;;;3.70;2.00;;;29.80;40.00;;;;;;4981715;28;20054;-78
2022/06/12 07:52:33;;;;;;;12.75;2.22;;;30.00;39.50;;;;;;4978372;28;20025;-79
2022/06/12 07:54:58;;;;;;;6.60;2.10;;;30.20;39.20;;;;;;4977439;28;20471;-78
2022/06/12 07:57:25;;;;;;;21.88;3.75;;;30.40;39.10;;;;;;4977207;28;20069;-77
2022/06/12 07:59:50;;;;;;;5.35;2.60;;;30.50;40.10;;;;;;4976462;28;20376;-77
2022/06/12 08:02:17;;;;;;;5.70;2.20;;;30.60;39.10;;;;;;4977658;28;20037;-74
2022/06/12 08:04:42;;;;;;;5.93;1.98;;;30.60;38.90;;;;;;4976680;28;20037;-75
2022/06/12 08:07:08;;;;;;;6.95;2.25;;;30.50;38.50;;;;;;4976188;28;20110;-77
2022/06/12 08:09:34;;;;;;;7.60;2.20;;;30.40;38.90;;;;;;4975279;28;20085;-77
2022/06/12 08:12:00;;;;;;;3.70;2.10;;;30.50;38.90;;;;;;4976333;28;20023;-76
2022/06/12 08:14:26;;;;;;;5.78;2.40;;;30.50;38.30;;;;;;4975933;28;20484;-76
2022/06/12 08:16:53;;;;;;;4.53;1.90;;;30.50;38.40;;;;;;4974335;28;20030;-77
2022/06/12 08:22:06;;;;;;;5.55;1.98;;;30.40;38.60;;;;;;4974793;28;20117;-79
2022/06/12 08:24:32;;;;;;;4.65;2.13;;;30.30;38.70;;;;;;4974975;28;20071;-75
2022/06/12 08:26:57;;;;;;;8.63;2.63;;;30.30;39.20;;;;;;4972806;28;20077;-82
2022/06/12 08:29:24;;;;;;;5.57;2.00;;;30.30;38.70;;;;;;4974882;28;20039;-80
2022/06/12 08:31:58;;;;;;;5.40;1.90;;;30.30;38.50;;;;;;4973688;28;20469;-74
2022/06/12 08:34:31;;;;;;;5.30;1.92;;;30.20;38.30;;;;;;4974592;28;20121;-75
2022/06/12 08:37:00;;;;;;;4.50;2.10;;;30.20;38.40;;;;;;4974856;28;20019;-75
2022/06/12 08:39:27;;;;;;;4.32;2.10;;;30.20;38.80;;;;;;4974550;28;20018;-75
2022/06/12 08:42:11;;;;;;;4.22;1.90;;;30.10;39.00;;;;;;4974811;28;20082;-79
2022/06/12 08:44:51;;;;;;;5.63;2.20;;;30.00;38.70;;;;;;4974615;28;20054;-75
2022/06/12 08:47:24;;;;;;;5.75;2.10;;;30.00;40.00;;;;;;4974535;28;20073;-75
2022/06/12 08:50:15;;;;;;;4.03;2.00;;;29.90;39.20;;;;;;4972234;28;20133;-74
2022/06/12 08:52:50;;;;;;;5.97;1.83;;;29.80;39.10;;;;;;4974819;28;20023;-73
2022/06/12 08:55:29;;;;;;;9.82;2.05;;;29.70;39.10;;;;;;4974817;28;20060;-75
2022/06/12 08:58:04;;;;;;;5.13;2.17;;;29.70;39.30;;;;;;4975008;28;20019;-73
2022/06/12 09:00:35;;;;;;;4.85;2.00;;;29.70;39.10;;;;;;4975010;28;20065;-76
2022/06/12 09:03:02;;;;;;;3.50;1.75;;;29.60;39.10;;;;;;4975058;28;20121;-75
2022/06/12 09:06:10;;;;;;;5.55;1.95;;;29.70;38.90;;;;;;4974552;28;20026;-75
2022/06/12 09:08:50;;;;;;;4.95;1.90;;;29.70;38.60;;;;;;4963350;28;20039;-76
2022/06/12 09:11:37;;;;;;;5.78;2.00;;;29.70;38.90;;;;;;4955482;28;20400;-76
2022/06/12 09:14:32;;;;;;;5.43;1.98;;;29.70;38.60;;;;;;4955138;28;20031;-74
2022/06/12 09:17:14;;;;;;;4.22;1.83;;;29.80;38.70;;;;;;4955475;28;20034;-76
2022/06/12 09:19:49;;;;;;;6.70;2.17;;;29.80;39.20;;;;;;4955450;28;20019;-78
2022/06/12 09:22:49;;;;;;;3.45;1.63;;;29.70;38.90;;;;;;4955372;28;20039;-76
2022/06/12 09:25:32;;;;;;;3.88;2.00;;;29.70;40.30;;;;;;4942398;28;20477;-78
2022/06/12 09:28:31;;;;;;;6.55;2.30;;;29.70;39.40;;;;;;4974133;28;20037;-72
2022/06/12 09:31:14;;;;;;;4.07;2.05;;;29.80;39.10;;;;;;4974792;28;20031;-77
2022/06/12 09:34:02;;;;;;;4.55;1.70;;;29.90;39.00;;;;;;4975171;28;20035;-74
2022/06/12 09:36:52;;;;;;;5.22;2.00;;;29.90;38.90;;;;;;4976002;28;20366;-75
2022/06/12 09:39:50;;;;;;;3.55;1.85;;;29.90;38.80;;;;;;4976876;28;20477;-77
2022/06/12 09:42:19;;;;;;;6.90;1.70;;;29.90;38.90;;;;;;4976621;28;20497;-73
2022/06/12 09:44:53;;;;;;;3.17;1.95;;;29.90;39.30;;;;;;4982339;28;20031;-77
2022/06/12 09:47:45;;;;;;;4.28;1.90;;;29.90;39.20;;;;;;4983742;28;20115;-77
2022/06/12 09:50:26;;;;;;;5.95;2.13;;;30.00;39.10;;;;;;4982126;28;20027;-77
2022/06/12 09:53:13;;;;;;;8.75;2.03;;;30.00;39.00;;;;;;4990603;28;20042;-77
2022/06/12 09:55:48;;;;;;;5.55;1.95;;;30.00;38.60;;;;;;4984669;28;20031;-76
2022/06/12 09:58:16;;;;;;;6.32;2.30;;;30.00;38.60;;;;;;4975417;28;20050;-76
2022/06/12 10:00:58;;;;;;;5.80;2.38;;;30.00;38.60;;;;;;4974651;28;20178;-78
2022/06/12 10:03:33;;;;;;;4.45;1.80;;;30.10;39.00;;;;;;4978804;28;20450;-77
2022/06/12 10:06:06;;;;;;;11.60;2.95;;;30.20;38.70;;;;;;4975478;28;20022;-74
2022/06/12 10:08:38;;;;;;;;;;;30.20;38.40;;;;;;4978816;28;20042;-73
2022/06/12 10:11:43;;;;;;;5.57;1.90;;;30.20;38.00;;;;;;4977362;28;20330;-75
2022/06/12 10:14:29;;;;;;;16.90;6.68;;;30.30;38.00;;;;;;4971088;28;20054;-77
2022/06/12 10:16:57;;;;;;;7.72;2.50;;;30.30;38.10;;;;;;4978631;28;20026;-79
2022/06/12 10:19:47;;;;;;;8.05;2.60;;;30.40;38.10;;;;;;4977394;28;20038;-75
2022/06/12 10:22:27;;;;;;;5.53;2.50;;;30.40;38.20;;;;;;4972150;28;20129;-76
2022/06/12 10:24:55;;;;;;;10.85;3.75;;;30.40;38.20;;;;;;4958731;28;20056;-76
2022/06/12 10:27:22;;;;;;;17.55;5.25;;;30.50;38.00;;;;;;4958220;28;20062;-74
2022/06/12 10:29:56;;;;;;;11.13;3.78;;;30.40;38.60;;;;;;4958110;28;20055;-75
2022/06/12 10:32:26;;;;;;;4.82;1.88;;;30.40;38.50;;;;;;4974698;28;20022;-74
2022/06/12 10:34:56;;;;;;;6.18;2.15;;;30.40;37.70;;;;;;4976104;28;20031;-77
2022/06/12 10:37:28;;;;;;;7.10;2.63;;;30.50;37.70;;;;;;4976256;28;20172;-78
2022/06/12 10:40:18;;;;;;;6.57;2.20;;;30.60;38.10;;;;;;4977920;28;20436;-79
2022/06/12 10:42:50;;;;;;;13.05;4.15;;;30.70;38.00;;;;;;4976064;28;20480;-75
2022/06/12 10:45:26;;;;;;;5.45;2.95;;;30.70;37.20;;;;;;4977505;28;20100;-77
2022/06/12 10:47:55;;;;;;;5.07;2.40;;;30.70;37.70;;;;;;4977374;28;20098;-71
2022/06/12 10:50:29;;;;;;;14.65;4.13;;;30.70;37.20;;;;;;4976024;28;20099;-74
2022/06/12 10:53:09;;;;;;;11.38;2.70;;;30.80;38.10;;;;;;4975623;28;20428;-77
2022/06/12 10:55:53;;;;;;;7.72;2.22;;;30.90;38.30;;;;;;4976343;28;20392;-76
2022/06/12 10:58:28;;;;;;;16.35;4.63;;;31.00;37.70;;;;;;4977280;28;20033;-74
2022/06/12 11:00:58;;;;;;;6.93;3.08;;;31.00;38.30;;;;;;4976875;28;20022;-74
2022/06/12 11:03:39;;;;;;;3.35;1.98;;;31.00;37.30;;;;;;4976784;28;20085;-73
2022/06/12 11:06:20;;;;;;;7.30;2.58;;;31.00;37.60;;;;;;4976719;28;20051;-73
2022/06/12 11:09:15;;;;;;;4.45;1.77;;;31.10;37.60;;;;;;4977283;28;20037;-72
2022/06/12 11:11:49;;;;;;;11.43;3.55;;;31.30;37.50;;;;;;4977014;28;20019;-74
2022/06/12 11:14:42;;;;;;;4.40;2.00;;;31.20;38.00;;;;;;4975828;28;20073;-73
2022/06/12 11:17:25;;;;;;;6.43;1.88;;;31.30;37.50;;;;;;4976983;28;20085;-74
2022/06/12 11:20:28;;;;;;;4.95;2.05;;;31.30;37.40;;;;;;4975078;28;20122;-72
2022/06/12 11:23:22;;;;;;;10.52;4.03;;;31.30;37.10;;;;;;4978305;28;20174;-74
2022/06/12 11:25:57;;;;;;;3.83;1.80;;;31.40;37.40;;;;;;4969583;28;20065;-73
2022/06/12 11:29:01;;;;;;;8.48;3.38;;;31.40;37.30;;;;;;4976531;28;20170;-74
2022/06/12 11:31:36;;;;;;;15.50;5.35;;;31.40;37.70;;;;;;4975522;28;20400;-73
2022/06/12 11:34:36;;;;;;;5.05;1.92;;;31.50;38.60;;;;;;4976468;28;20142;-74
2022/06/12 11:37:31;;;;;;;5.70;2.35;;;31.60;37.40;;;;;;4976462;28;20072;-76
2022/06/12 11:40:24;;;;;;;5.75;1.90;;;31.70;37.00;;;;;;4974845;28;20054;-73
2022/06/12 11:42:59;;;;;;;3.90;1.80;;;31.80;36.40;;;;;;4976019;28;20038;-73
2022/06/12 11:45:31;;;;;;;3.38;2.00;;;31.80;36.70;;;;;;4976069;28;20113;-72
2022/06/12 11:48:20;;;;;;;4.82;1.90;;;31.90;36.10;;;;;;4975965;28;20120;-73
2022/06/12 11:50:49;;;;;;;10.23;3.92;;;32.00;36.40;;;;;;4976095;28;20034;-73
2022/06/12 11:53:26;;;;;;;4.65;2.05;;;32.00;35.70;;;;;;4976019;28;20054;-73
2022/06/12 11:56:11;;;;;;;5.97;1.95;;;32.10;35.70;;;;;;4976106;28;20484;-76
2022/06/12 11:59:17;;;;;;;11.63;2.53;;;32.10;36.40;;;;;;4976110;28;20464;-72
2022/06/12 12:01:56;;;;;;;6.78;2.40;;;32.20;36.50;;;;;;4976551;28;20038;-77
2022/06/12 12:05:02;;;;;;;5.72;2.75;;;32.30;36.40;;;;;;4976258;28;20042;-76
2022/06/12 12:07:49;;;;;;;2.47;1.40;;;32.40;36.00;;;;;;4976442;28;20031;-75
2022/06/12 12:10:22;;;;;;;5.50;1.70;;;32.50;35.40;;;;;;4975623;28;20027;-75
2022/06/12 12:12:55;;;;;;;5.57;1.80;;;32.60;34.40;;;;;;4975665;28;20494;-75
2022/06/12 12:15:29;;;;;;;2.72;1.60;;;32.60;33.80;;;;;;4975774;28;20110;-74
2022/06/12 12:17:57;;;;;;;4.78;1.80;;;32.60;33.60;;;;;;4975525;28;20078;-74
2022/06/12 12:20:29;;;;;;;3.78;1.33;;;32.70;34.00;;;;;;4975398;28;20101;-76
2022/06/12 12:23:07;;;;;;;5.70;1.50;;;32.60;34.00;;;;;;4975396;28;20093;-76
2022/06/12 12:25:42;;;;;;;3.40;1.65;;;32.60;33.60;;;;;;4974212;28;20040;-75
2022/06/12 12:28:36;;;;;;;5.00;2.72;;;32.50;33.60;;;;;;4975540;28;20086;-75
2022/06/12 12:31:13;;;;;;;5.00;1.52;;;32.50;34.40;;;;;;4975266;28;20023;-73
2022/06/12 12:33:42;;;;;;;2.95;1.38;;;32.60;34.20;;;;;;4975465;28;20307;-73
2022/06/12 12:41:52;;;;;;;4.55;2.00;;;32.90;32.90;;;;;;4975332;28;20038;-74
2022/06/12 12:44:40;;;;;;;3.22;1.90;;;32.80;33.10;;;;;;4974967;28;20035;-72
2022/06/12 12:47:24;;;;;;;4.15;3.05;;;32.90;33.50;;;;;;4975274;28;20030;-72
2022/06/12 12:50:02;;;;;;;5.53;2.22;;;32.90;32.60;;;;;;4975174;28;20031;-73
2022/06/12 12:52:50;;;;;;;5.28;2.22;;;32.90;32.90;;;;;;4974877;28;20537;-73
2022/06/12 12:55:31;;;;;;;4.57;2.00;;;33.00;33.20;;;;;;4974478;28;20110;-72
2022/06/12 12:58:00;;;;;;;2.28;1.40;;;33.10;32.90;;;;;;4974758;28;20019;-73
2022/06/12 13:00:35;;;;;;;3.88;1.80;;;33.20;32.50;;;;;;4974483;28;20449;-74
2022/06/12 13:03:28;;;;;;;4.65;1.80;;;33.20;31.80;;;;;;4974615;28;20117;-73
2022/06/12 13:06:14;;;;;;;4.95;1.85;;;33.20;31.80;;;;;;4970462;28;20058;-71
2022/06/12 13:08:54;;;;;;;4.07;2.47;;;33.20;32.40;;;;;;4974586;28;20109;-75
2022/06/12 13:11:26;;;;;;;5.68;3.60;;;33.20;32.60;;;;;;4974556;28;20519;-74
2022/06/12 13:14:07;;;;;;;4.38;3.13;;;33.10;32.80;;;;;;4974605;28;20369;-73
2022/06/12 13:16:54;;;;;;;3.97;1.70;;;33.00;32.40;;;;;;4974588;28;20031;-76
2022/06/12 13:19:29;;;;;;;3.95;2.42;;;33.00;32.60;;;;;;4974438;28;20033;-74
2022/06/12 13:21:58;;;;;;;9.27;2.90;;;32.90;33.20;;;;;;4974244;28;20480;-73
2022/06/12 13:24:44;;;;;;;3.67;2.25;;;32.90;32.60;;;;;;4974317;28;20053;-72
2022/06/12 13:27:21;;;;;;;5.35;2.50;;;32.90;31.80;;;;;;4974601;28;20027;-72
2022/06/12 13:29:48;;;;;;;5.55;1.77;;;32.80;32.70;;;;;;4974192;28;20023;-73
2022/06/12 13:32:30;;;;;;;3.00;1.67;;;32.80;32.00;;;;;;4974232;28;20023;-74
2022/06/12 13:35:06;;;;;;;3.97;1.83;;;32.80;31.60;;;;;;4974375;28;20102;-73
2022/06/12 13:37:36;;;;;;;2.58;1.63;;;32.90;31.70;;;;;;4972861;28;20038;-73
2022/06/12 13:40:21;;;;;;;5.80;2.35;;;33.00;32.70;;;;;;4974030;28;20015;-72
2022/06/12 13:42:47;;;;;;;3.67;2.10;;;33.00;31.70;;;;;;4973997;28;20113;-74